sensor_id;sensor_type;location;lat;lon;timestamp;P1;durP1;ratioP1;P2;durP2;ratioP2
20629;SDS011;17386;43.846;25.950;2022-09-09T00:01:50;4.95;;;2.50;;
20629;SDS011;17386;43.846;25.950;2022-09-09T00:04:34;4.47;;;2.50;;
20629;SDS011;17386;43.846;25.950;2022-09-09T00:09:59;6.22;;;3.17;;
20629;SDS011;17386;43.846;25.950;2022-09-09T00:18:11;5.88;;;2.40;;
20629;SDS011;17386;43.846;25.950;2022-09-09T00:23:30;6.38;;;2.25;;
20629;SDS011;17386;43.846;25.950;2022-09-09T00:26:04;3.95;;;2.15;;
20629;SDS011;17386;43.846;25.950;2022-09-09T00:28:33;5.78;;;2.60;;
20629;SDS011;17386;43.846;25.950;2022-09-09T00:31:11;3.58;;;2.22;;
20629;SDS011;17386;43.846;25.950;2022-09-09T00:33:43;5.13;;;2.33;;
20629;SDS011;17386;43.846;25.950;2022-09-09T00:36:14;8.10;;;2.50;;
20629;SDS011;17386;43.846;25.950;2022-09-09T00:38:51;7.55;;;2.50;;
20629;SDS011;17386;43.846;25.950;2022-09-09T00:44:36;5.43;;;2.75;;
20629;SDS011;17386;43.846;25.950;2022-09-09T00:48:05;5.00;;;2.70;;
20629;SDS011;17386;43.846;25.950;2022-09-09T00:55:55;5.32;;;2.50;;
20629;SDS011;17386;43.846;25.950;2022-09-09T00:58:34;5.90;;;2.97;;
20629;SDS011;17386;43.846;25.950;2022-09-09T01:01:11;3.78;;;2.30;;
20629;SDS011;17386;43.846;25.950;2022-09-09T01:03:53;3.80;;;2.38;;
20629;SDS011;17386;43.846;25.950;2022-09-09T01:06:30;6.63;;;2.50;;
20629;SDS011;17386;43.846;25.950;2022-09-09T01:14:52;7.07;;;2.70;;
20629;SDS011;17386;43.846;25.950;2022-09-09T01:20:18;5.90;;;2.50;;
20629;SDS011;17386;43.846;25.950;2022-09-09T01:29:00;4.40;;;2.55;;
20629;SDS011;17386;43.846;25.950;2022-09-09T01:31:28;4.90;;;2.55;;
20629;SDS011;17386;43.846;25.950;2022-09-09T01:33:57;5.40;;;2.60;;
20629;SDS011;17386;43.846;25.950;2022-09-09T01:36:35;3.60;;;2.50;;
20629;SDS011;17386;43.846;25.950;2022-09-09T01:39:32;4.22;;;2.08;;
20629;SDS011;17386;43.846;25.950;2022-09-09T01:42:02;4.97;;;2.38;;
20629;SDS011;17386;43.846;25.950;2022-09-09T01:44:34;5.40;;;2.28;;
20629;SDS011;17386;43.846;25.950;2022-09-09T01:47:01;4.47;;;2.65;;
20629;SDS011;17386;43.846;25.950;2022-09-09T01:49:28;3.65;;;2.38;;
20629;SDS011;17386;43.846;25.950;2022-09-09T01:51:55;4.53;;;2.65;;
20629;SDS011;17386;43.846;25.950;2022-09-09T01:54:24;4.38;;;2.53;;
20629;SDS011;17386;43.846;25.950;2022-09-09T02:02:44;4.30;;;2.33;;
20629;SDS011;17386;43.846;25.950;2022-09-09T02:08:08;4.80;;;2.53;;
20629;SDS011;17386;43.846;25.950;2022-09-09T02:10:46;3.65;;;2.47;;
20629;SDS011;17386;43.846;25.950;2022-09-09T02:13:21;6.15;;;2.58;;
20629;SDS011;17386;43.846;25.950;2022-09-09T02:15:58;5.15;;;2.35;;
20629;SDS011;17386;43.846;25.950;2022-09-09T02:18:34;3.75;;;2.38;;
20629;SDS011;17386;43.846;25.950;2022-09-09T02:21:03;5.50;;;2.72;;
20629;SDS011;17386;43.846;25.950;2022-09-09T02:23:32;3.10;;;2.20;;
20629;SDS011;17386;43.846;25.950;2022-09-09T02:26:01;7.38;;;2.50;;
20629;SDS011;17386;43.846;25.950;2022-09-09T02:28:30;3.55;;;2.50;;
20629;SDS011;17386;43.846;25.950;2022-09-09T02:30:58;3.47;;;2.47;;
20629;SDS011;17386;43.846;25.950;2022-09-09T02:33:30;6.45;;;2.58;;
20629;SDS011;17386;43.846;25.950;2022-09-09T02:36:07;3.75;;;2.22;;
20629;SDS011;17386;43.846;25.950;2022-09-09T02:38:38;4.65;;;2.65;;
20629;SDS011;17386;43.846;25.950;2022-09-09T02:41:12;4.90;;;2.33;;
20629;SDS011;17386;43.846;25.950;2022-09-09T02:43:40;6.55;;;2.70;;
20629;SDS011;17386;43.846;25.950;2022-09-09T02:51:49;4.05;;;2.40;;
20629;SDS011;17386;43.846;25.950;2022-09-09T02:54:30;4.07;;;2.55;;
20629;SDS011;17386;43.846;25.950;2022-09-09T02:59:48;4.80;;;2.33;;
20629;SDS011;17386;43.846;25.950;2022-09-09T03:02:16;5.53;;;2.50;;
20629;SDS011;17386;43.846;25.950;2022-09-09T03:04:42;11.05;;;3.72;;
20629;SDS011;17386;43.846;25.950;2022-09-09T03:07:10;11.13;;;3.40;;
20629;SDS011;17386;43.846;25.950;2022-09-09T03:09:38;4.22;;;2.55;;
20629;SDS011;17386;43.846;25.950;2022-09-09T03:12:05;6.97;;;2.72;;
20629;SDS011;17386;43.846;25.950;2022-09-09T03:14:33;5.45;;;2.70;;
20629;SDS011;17386;43.846;25.950;2022-09-09T03:17:00;5.75;;;3.00;;
20629;SDS011;17386;43.846;25.950;2022-09-09T03:19:28;11.90;;;3.47;;
20629;SDS011;17386;43.846;25.950;2022-09-09T03:21:56;18.08;;;4.30;;
20629;SDS011;17386;43.846;25.950;2022-09-09T03:24:24;9.70;;;2.90;;
20629;SDS011;17386;43.846;25.950;2022-09-09T03:26:51;5.68;;;2.97;;
20629;SDS011;17386;43.846;25.950;2022-09-09T03:29:18;6.15;;;2.50;;
20629;SDS011;17386;43.846;25.950;2022-09-09T03:31:45;5.03;;;2.60;;
20629;SDS011;17386;43.846;25.950;2022-09-09T03:34:10;7.93;;;3.10;;
20629;SDS011;17386;43.846;25.950;2022-09-09T03:36:36;7.93;;;2.95;;
20629;SDS011;17386;43.846;25.950;2022-09-09T03:39:03;5.10;;;2.60;;
20629;SDS011;17386;43.846;25.950;2022-09-09T03:41:30;5.22;;;2.80;;
20629;SDS011;17386;43.846;25.950;2022-09-09T03:43:57;5.63;;;2.80;;
20629;SDS011;17386;43.846;25.950;2022-09-09T03:46:24;8.77;;;2.88;;
20629;SDS011;17386;43.846;25.950;2022-09-09T03:48:52;4.40;;;2.70;;
20629;SDS011;17386;43.846;25.950;2022-09-09T03:51:19;4.30;;;2.53;;
20629;SDS011;17386;43.846;25.950;2022-09-09T03:53:46;6.00;;;2.97;;
20629;SDS011;17386;43.846;25.950;2022-09-09T03:56:12;5.43;;;2.40;;
20629;SDS011;17386;43.846;25.950;2022-09-09T03:58:40;6.05;;;2.90;;
20629;SDS011;17386;43.846;25.950;2022-09-09T04:01:08;7.07;;;3.33;;
20629;SDS011;17386;43.846;25.950;2022-09-09T04:03:40;5.90;;;2.83;;
20629;SDS011;17386;43.846;25.950;2022-09-09T04:06:07;6.47;;;2.30;;
20629;SDS011;17386;43.846;25.950;2022-09-09T04:08:36;7.20;;;2.50;;
20629;SDS011;17386;43.846;25.950;2022-09-09T04:11:04;5.38;;;2.60;;
20629;SDS011;17386;43.846;25.950;2022-09-09T04:13:33;5.13;;;2.40;;
20629;SDS011;17386;43.846;25.950;2022-09-09T04:16:02;3.92;;;2.58;;
20629;SDS011;17386;43.846;25.950;2022-09-09T04:18:28;5.25;;;3.13;;
20629;SDS011;17386;43.846;25.950;2022-09-09T04:20:56;6.28;;;2.67;;
20629;SDS011;17386;43.846;25.950;2022-09-09T04:23:26;6.63;;;2.72;;
20629;SDS011;17386;43.846;25.950;2022-09-09T04:25:56;9.18;;;2.80;;
20629;SDS011;17386;43.846;25.950;2022-09-09T04:28:25;4.03;;;2.75;;
20629;SDS011;17386;43.846;25.950;2022-09-09T04:31:07;3.60;;;2.13;;
20629;SDS011;17386;43.846;25.950;2022-09-09T04:33:35;5.78;;;2.63;;
20629;SDS011;17386;43.846;25.950;2022-09-09T04:36:03;6.57;;;3.22;;
20629;SDS011;17386;43.846;25.950;2022-09-09T04:38:28;7.63;;;2.95;;
20629;SDS011;17386;43.846;25.950;2022-09-09T04:40:55;5.82;;;2.78;;
20629;SDS011;17386;43.846;25.950;2022-09-09T04:43:22;10.40;;;3.33;;
20629;SDS011;17386;43.846;25.950;2022-09-09T04:45:50;7.53;;;3.80;;
20629;SDS011;17386;43.846;25.950;2022-09-09T04:48:20;12.35;;;3.20;;
20629;SDS011;17386;43.846;25.950;2022-09-09T04:50:58;10.52;;;2.80;;
20629;SDS011;17386;43.846;25.950;2022-09-09T04:53:28;7.25;;;3.63;;
20629;SDS011;17386;43.846;25.950;2022-09-09T04:56:16;20.92;;;9.70;;
20629;SDS011;17386;43.846;25.950;2022-09-09T04:58:42;8.63;;;3.88;;
20629;SDS011;17386;43.846;25.950;2022-09-09T05:01:19;5.80;;;2.92;;
20629;SDS011;17386;43.846;25.950;2022-09-09T05:03:48;9.18;;;3.28;;
20629;SDS011;17386;43.846;25.950;2022-09-09T05:06:15;6.22;;;2.92;;
20629;SDS011;17386;43.846;25.950;2022-09-09T05:08:43;5.07;;;2.45;;
20629;SDS011;17386;43.846;25.950;2022-09-09T05:11:18;9.23;;;2.83;;
20629;SDS011;17386;43.846;25.950;2022-09-09T05:13:51;6.75;;;2.72;;
20629;SDS011;17386;43.846;25.950;2022-09-09T05:16:19;8.80;;;3.45;;
20629;SDS011;17386;43.846;25.950;2022-09-09T05:18:47;6.70;;;2.55;;
20629;SDS011;17386;43.846;25.950;2022-09-09T05:21:13;5.97;;;3.00;;
20629;SDS011;17386;43.846;25.950;2022-09-09T05:23:39;4.05;;;2.53;;
20629;SDS011;17386;43.846;25.950;2022-09-09T05:26:08;7.63;;;3.80;;
20629;SDS011;17386;43.846;25.950;2022-09-09T05:28:38;4.93;;;2.47;;
20629;SDS011;17386;43.846;25.950;2022-09-09T05:31:05;27.65;;;13.95;;
20629;SDS011;17386;43.846;25.950;2022-09-09T05:33:36;6.80;;;3.50;;
20629;SDS011;17386;43.846;25.950;2022-09-09T05:36:05;7.32;;;3.00;;
20629;SDS011;17386;43.846;25.950;2022-09-09T05:38:33;5.25;;;2.95;;
20629;SDS011;17386;43.846;25.950;2022-09-09T05:41:00;10.13;;;3.55;;
20629;SDS011;17386;43.846;25.950;2022-09-09T05:43:26;6.18;;;3.35;;
20629;SDS011;17386;43.846;25.950;2022-09-09T05:46:02;8.25;;;3.30;;
20629;SDS011;17386;43.846;25.950;2022-09-09T05:48:34;6.05;;;3.13;;
20629;SDS011;17386;43.846;25.950;2022-09-09T05:51:01;6.03;;;2.92;;
20629;SDS011;17386;43.846;25.950;2022-09-09T05:53:27;8.82;;;4.15;;
20629;SDS011;17386;43.846;25.950;2022-09-09T05:56:13;6.97;;;3.10;;
20629;SDS011;17386;43.846;25.950;2022-09-09T05:58:40;6.00;;;3.13;;
20629;SDS011;17386;43.846;25.950;2022-09-09T06:01:31;11.48;;;3.15;;
20629;SDS011;17386;43.846;25.950;2022-09-09T06:03:58;13.38;;;3.58;;
20629;SDS011;17386;43.846;25.950;2022-09-09T06:06:30;14.82;;;3.58;;
20629;SDS011;17386;43.846;25.950;2022-09-09T06:09:03;12.82;;;3.63;;
20629;SDS011;17386;43.846;25.950;2022-09-09T06:11:35;26.83;;;4.85;;
20629;SDS011;17386;43.846;25.950;2022-09-09T06:14:01;13.60;;;3.40;;
20629;SDS011;17386;43.846;25.950;2022-09-09T06:16:28;18.98;;;6.32;;
20629;SDS011;17386;43.846;25.950;2022-09-09T06:18:55;14.23;;;4.82;;
20629;SDS011;17386;43.846;25.950;2022-09-09T06:21:24;15.27;;;6.28;;
20629;SDS011;17386;43.846;25.950;2022-09-09T06:23:50;6.15;;;2.97;;
20629;SDS011;17386;43.846;25.950;2022-09-09T06:26:20;6.75;;;2.90;;
20629;SDS011;17386;43.846;25.950;2022-09-09T06:28:48;9.88;;;3.05;;
20629;SDS011;17386;43.846;25.950;2022-09-09T06:31:15;5.72;;;2.75;;
20629;SDS011;17386;43.846;25.950;2022-09-09T06:33:42;11.45;;;3.42;;
20629;SDS011;17386;43.846;25.950;2022-09-09T06:36:11;13.93;;;3.30;;
20629;SDS011;17386;43.846;25.950;2022-09-09T06:38:40;7.85;;;2.95;;
20629;SDS011;17386;43.846;25.950;2022-09-09T06:41:07;7.82;;;3.17;;
20629;SDS011;17386;43.846;25.950;2022-09-09T06:43:34;6.85;;;3.75;;
20629;SDS011;17386;43.846;25.950;2022-09-09T06:48:28;6.20;;;3.10;;
20629;SDS011;17386;43.846;25.950;2022-09-09T06:51:01;7.47;;;3.45;;
20629;SDS011;17386;43.846;25.950;2022-09-09T06:53:28;5.45;;;2.80;;
20629;SDS011;17386;43.846;25.950;2022-09-09T06:55:53;10.15;;;3.53;;
20629;SDS011;17386;43.846;25.950;2022-09-09T06:58:20;4.53;;;3.50;;
20629;SDS011;17386;43.846;25.950;2022-09-09T07:00:47;6.75;;;3.05;;
20629;SDS011;17386;43.846;25.950;2022-09-09T07:03:13;9.18;;;3.78;;
20629;SDS011;17386;43.846;25.950;2022-09-09T07:05:39;5.90;;;2.63;;
20629;SDS011;17386;43.846;25.950;2022-09-09T07:08:04;7.63;;;3.10;;
20629;SDS011;17386;43.846;25.950;2022-09-09T07:10:30;9.85;;;3.55;;
20629;SDS011;17386;43.846;25.950;2022-09-09T07:12:57;5.43;;;3.30;;
20629;SDS011;17386;43.846;25.950;2022-09-09T07:15:23;5.32;;;3.70;;
20629;SDS011;17386;43.846;25.950;2022-09-09T07:17:49;9.77;;;3.65;;
20629;SDS011;17386;43.846;25.950;2022-09-09T07:20:15;5.07;;;2.78;;
20629;SDS011;17386;43.846;25.950;2022-09-09T07:22:41;4.15;;;2.97;;
20629;SDS011;17386;43.846;25.950;2022-09-09T07:25:06;8.30;;;3.75;;
20629;SDS011;17386;43.846;25.950;2022-09-09T07:27:33;5.60;;;3.08;;
20629;SDS011;17386;43.846;25.950;2022-09-09T07:29:59;5.20;;;3.00;;
20629;SDS011;17386;43.846;25.950;2022-09-09T07:32:24;9.27;;;4.32;;
20629;SDS011;17386;43.846;25.950;2022-09-09T07:34:50;9.10;;;3.67;;
20629;SDS011;17386;43.846;25.950;2022-09-09T07:37:16;8.98;;;3.72;;
20629;SDS011;17386;43.846;25.950;2022-09-09T07:39:43;7.35;;;3.35;;
20629;SDS011;17386;43.846;25.950;2022-09-09T07:42:09;4.55;;;2.95;;
20629;SDS011;17386;43.846;25.950;2022-09-09T07:44:36;4.82;;;2.97;;
20629;SDS011;17386;43.846;25.950;2022-09-09T07:47:04;6.72;;;3.67;;
20629;SDS011;17386;43.846;25.950;2022-09-09T07:49:30;5.97;;;3.25;;
20629;SDS011;17386;43.846;25.950;2022-09-09T07:51:56;5.30;;;3.33;;
20629;SDS011;17386;43.846;25.950;2022-09-09T07:54:23;5.78;;;3.45;;
20629;SDS011;17386;43.846;25.950;2022-09-09T07:59:16;12.25;;;3.90;;
20629;SDS011;17386;43.846;25.950;2022-09-09T08:01:44;5.55;;;2.90;;
20629;SDS011;17386;43.846;25.950;2022-09-09T08:04:15;5.45;;;3.30;;
20629;SDS011;17386;43.846;25.950;2022-09-09T08:06:45;4.55;;;3.95;;
20629;SDS011;17386;43.846;25.950;2022-09-09T08:09:13;8.27;;;3.33;;
20629;SDS011;17386;43.846;25.950;2022-09-09T08:11:41;6.15;;;2.83;;
20629;SDS011;17386;43.846;25.950;2022-09-09T08:14:08;4.70;;;3.30;;
20629;SDS011;17386;43.846;25.950;2022-09-09T08:16:36;9.60;;;3.50;;
20629;SDS011;17386;43.846;25.950;2022-09-09T08:19:03;4.78;;;2.72;;
20629;SDS011;17386;43.846;25.950;2022-09-09T08:23:58;9.32;;;2.78;;
20629;SDS011;17386;43.846;25.950;2022-09-09T08:26:29;7.80;;;4.90;;
20629;SDS011;17386;43.846;25.950;2022-09-09T08:28:58;20.10;;;15.48;;
20629;SDS011;17386;43.846;25.950;2022-09-09T08:33:57;7.00;;;3.05;;
20629;SDS011;17386;43.846;25.950;2022-09-09T08:36:28;8.73;;;4.18;;
20629;SDS011;17386;43.846;25.950;2022-09-09T08:38:58;4.45;;;3.15;;
20629;SDS011;17386;43.846;25.950;2022-09-09T08:50:22;6.38;;;3.65;;
20629;SDS011;17386;43.846;25.950;2022-09-09T08:53:01;7.00;;;3.80;;
20629;SDS011;17386;43.846;25.950;2022-09-09T08:58:24;7.57;;;3.90;;
20629;SDS011;17386;43.846;25.950;2022-09-09T09:09:04;8.38;;;4.55;;
20629;SDS011;17386;43.846;25.950;2022-09-09T09:11:38;6.78;;;3.50;;
20629;SDS011;17386;43.846;25.950;2022-09-09T09:14:13;8.27;;;3.60;;
20629;SDS011;17386;43.846;25.950;2022-09-09T09:16:54;9.27;;;3.70;;
20629;SDS011;17386;43.846;25.950;2022-09-09T09:19:23;11.40;;;3.92;;
20629;SDS011;17386;43.846;25.950;2022-09-09T09:29:50;8.98;;;3.72;;
20629;SDS011;17386;43.846;25.950;2022-09-09T09:32:21;8.45;;;3.33;;
20629;SDS011;17386;43.846;25.950;2022-09-09T09:34:55;10.43;;;3.70;;
20629;SDS011;17386;43.846;25.950;2022-09-09T09:37:30;5.90;;;3.45;;
20629;SDS011;17386;43.846;25.950;2022-09-09T09:40:11;8.38;;;4.10;;
20629;SDS011;17386;43.846;25.950;2022-09-09T09:42:48;8.45;;;3.85;;
20629;SDS011;17386;43.846;25.950;2022-09-09T09:48:08;6.05;;;3.72;;
20629;SDS011;17386;43.846;25.950;2022-09-09T09:50:39;6.75;;;3.92;;
20629;SDS011;17386;43.846;25.950;2022-09-09T09:53:20;7.88;;;3.85;;
20629;SDS011;17386;43.846;25.950;2022-09-09T09:55:52;7.05;;;3.45;;
20629;SDS011;17386;43.846;25.950;2022-09-09T09:58:20;6.05;;;3.95;;
20629;SDS011;17386;43.846;25.950;2022-09-09T10:00:49;8.77;;;4.97;;
20629;SDS011;17386;43.846;25.950;2022-09-09T10:03:21;7.75;;;3.70;;
20629;SDS011;17386;43.846;25.950;2022-09-09T10:05:48;7.90;;;6.00;;
20629;SDS011;17386;43.846;25.950;2022-09-09T10:08:15;8.90;;;5.18;;
20629;SDS011;17386;43.846;25.950;2022-09-09T10:13:26;8.50;;;3.97;;
20629;SDS011;17386;43.846;25.950;2022-09-09T10:26:48;4.88;;;3.42;;
20629;SDS011;17386;43.846;25.950;2022-09-09T10:40:30;6.28;;;3.72;;
20629;SDS011;17386;43.846;25.950;2022-09-09T10:43:04;9.10;;;4.00;;
20629;SDS011;17386;43.846;25.950;2022-09-09T10:53:12;5.47;;;3.25;;
20629;SDS011;17386;43.846;25.950;2022-09-09T10:55:48;6.85;;;3.65;;
20629;SDS011;17386;43.846;25.950;2022-09-09T11:01:09;7.03;;;3.65;;
20629;SDS011;17386;43.846;25.950;2022-09-09T11:03:41;9.50;;;3.50;;
20629;SDS011;17386;43.846;25.950;2022-09-09T11:06:20;6.35;;;3.42;;
20629;SDS011;17386;43.846;25.950;2022-09-09T11:08:50;7.55;;;4.03;;
20629;SDS011;17386;43.846;25.950;2022-09-09T11:17:03;6.57;;;3.55;;
20629;SDS011;17386;43.846;25.950;2022-09-09T11:19:35;6.75;;;4.40;;
20629;SDS011;17386;43.846;25.950;2022-09-09T11:22:50;4.82;;;3.10;;
20629;SDS011;17386;43.846;25.950;2022-09-09T11:36:29;4.95;;;3.33;;
20629;SDS011;17386;43.846;25.950;2022-09-09T11:41:50;7.45;;;3.97;;
20629;SDS011;17386;43.846;25.950;2022-09-09T11:44:19;8.95;;;3.28;;
20629;SDS011;17386;43.846;25.950;2022-09-09T11:46:53;6.60;;;3.83;;
20629;SDS011;17386;43.846;25.950;2022-09-09T11:52:24;4.97;;;3.25;;
20629;SDS011;17386;43.846;25.950;2022-09-09T11:55:08;4.93;;;3.40;;
20629;SDS011;17386;43.846;25.950;2022-09-09T11:57:36;5.75;;;3.42;;
20629;SDS011;17386;43.846;25.950;2022-09-09T12:00:03;4.00;;;3.17;;
20629;SDS011;17386;43.846;25.950;2022-09-09T12:02:30;5.80;;;3.88;;
20629;SDS011;17386;43.846;25.950;2022-09-09T12:07:51;7.13;;;3.50;;
20629;SDS011;17386;43.846;25.950;2022-09-09T12:15:53;7.68;;;3.50;;
20629;SDS011;17386;43.846;25.950;2022-09-09T12:18:24;5.82;;;3.83;;
20629;SDS011;17386;43.846;25.950;2022-09-09T12:24:02;8.02;;;3.53;;
20629;SDS011;17386;43.846;25.950;2022-09-09T12:26:36;9.40;;;3.70;;
20629;SDS011;17386;43.846;25.950;2022-09-09T12:31:46;4.72;;;3.33;;
20629;SDS011;17386;43.846;25.950;2022-09-09T12:34:49;8.88;;;5.00;;
20629;SDS011;17386;43.846;25.950;2022-09-09T12:40:06;9.30;;;3.95;;
20629;SDS011;17386;43.846;25.950;2022-09-09T12:42:52;7.10;;;3.78;;
20629;SDS011;17386;43.846;25.950;2022-09-09T12:45:23;6.72;;;3.78;;
20629;SDS011;17386;43.846;25.950;2022-09-09T12:50:21;9.75;;;6.75;;
20629;SDS011;17386;43.846;25.950;2022-09-09T12:52:50;10.23;;;5.57;;
20629;SDS011;17386;43.846;25.950;2022-09-09T12:55:24;8.20;;;4.40;;
20629;SDS011;17386;43.846;25.950;2022-09-09T12:57:52;8.13;;;4.18;;
20629;SDS011;17386;43.846;25.950;2022-09-09T13:00:20;6.30;;;4.63;;
20629;SDS011;17386;43.846;25.950;2022-09-09T13:05:24;8.18;;;4.75;;
20629;SDS011;17386;43.846;25.950;2022-09-09T13:07:51;8.35;;;5.78;;
20629;SDS011;17386;43.846;25.950;2022-09-09T13:10:26;9.15;;;4.18;;
20629;SDS011;17386;43.846;25.950;2022-09-09T13:12:54;6.80;;;4.18;;
20629;SDS011;17386;43.846;25.950;2022-09-09T13:15:21;11.32;;;4.55;;
20629;SDS011;17386;43.846;25.950;2022-09-09T13:17:55;6.03;;;3.70;;
20629;SDS011;17386;43.846;25.950;2022-09-09T13:20:23;5.38;;;4.45;;
20629;SDS011;17386;43.846;25.950;2022-09-09T13:22:50;16.23;;;10.25;;
20629;SDS011;17386;43.846;25.950;2022-09-09T13:25:19;5.45;;;3.85;;
20629;SDS011;17386;43.846;25.950;2022-09-09T13:28:00;8.95;;;4.00;;
20629;SDS011;17386;43.846;25.950;2022-09-09T13:30:31;6.00;;;3.88;;
20629;SDS011;17386;43.846;25.950;2022-09-09T13:35:29;6.63;;;3.78;;
20629;SDS011;17386;43.846;25.950;2022-09-09T13:37:55;9.30;;;3.75;;
20629;SDS011;17386;43.846;25.950;2022-09-09T13:40:22;7.28;;;4.13;;
20629;SDS011;17386;43.846;25.950;2022-09-09T13:42:51;6.65;;;3.83;;
20629;SDS011;17386;43.846;25.950;2022-09-09T13:45:20;8.98;;;4.30;;
20629;SDS011;17386;43.846;25.950;2022-09-09T13:47:51;7.28;;;4.68;;
20629;SDS011;17386;43.846;25.950;2022-09-09T13:52:56;14.30;;;5.50;;
20629;SDS011;17386;43.846;25.950;2022-09-09T13:55:24;15.52;;;4.40;;
20629;SDS011;17386;43.846;25.950;2022-09-09T13:57:52;7.57;;;4.50;;
20629;SDS011;17386;43.846;25.950;2022-09-09T14:00:18;11.30;;;7.38;;
20629;SDS011;17386;43.846;25.950;2022-09-09T14:02:44;8.82;;;4.65;;
20629;SDS011;17386;43.846;25.950;2022-09-09T14:05:10;9.68;;;4.55;;
20629;SDS011;17386;43.846;25.950;2022-09-09T14:07:36;11.88;;;4.70;;
20629;SDS011;17386;43.846;25.950;2022-09-09T14:10:03;8.13;;;4.28;;
20629;SDS011;17386;43.846;25.950;2022-09-09T14:12:30;6.13;;;4.10;;
20629;SDS011;17386;43.846;25.950;2022-09-09T14:14:55;6.18;;;4.13;;
20629;SDS011;17386;43.846;25.950;2022-09-09T14:17:20;8.15;;;4.68;;
20629;SDS011;17386;43.846;25.950;2022-09-09T14:19:48;9.38;;;4.03;;
20629;SDS011;17386;43.846;25.950;2022-09-09T14:24:39;8.85;;;4.50;;
20629;SDS011;17386;43.846;25.950;2022-09-09T14:27:05;10.23;;;4.32;;
20629;SDS011;17386;43.846;25.950;2022-09-09T14:29:31;14.10;;;5.22;;
20629;SDS011;17386;43.846;25.950;2022-09-09T14:31:57;8.13;;;4.70;;
20629;SDS011;17386;43.846;25.950;2022-09-09T14:34:26;10.63;;;6.28;;
20629;SDS011;17386;43.846;25.950;2022-09-09T14:36:51;10.40;;;4.80;;
20629;SDS011;17386;43.846;25.950;2022-09-09T14:39:17;10.10;;;4.70;;
20629;SDS011;17386;43.846;25.950;2022-09-09T14:41:42;10.00;;;5.50;;
20629;SDS011;17386;43.846;25.950;2022-09-09T14:44:08;7.68;;;4.90;;
20629;SDS011;17386;43.846;25.950;2022-09-09T14:46:33;9.40;;;4.90;;
20629;SDS011;17386;43.846;25.950;2022-09-09T14:48:59;9.50;;;5.05;;
20629;SDS011;17386;43.846;25.950;2022-09-09T14:51:25;12.07;;;5.22;;
20629;SDS011;17386;43.846;25.950;2022-09-09T14:53:54;10.90;;;6.07;;
20629;SDS011;17386;43.846;25.950;2022-09-09T14:56:22;10.00;;;5.28;;
20629;SDS011;17386;43.846;25.950;2022-09-09T14:58:50;10.00;;;4.93;;
20629;SDS011;17386;43.846;25.950;2022-09-09T15:01:18;18.27;;;5.47;;
20629;SDS011;17386;43.846;25.950;2022-09-09T15:03:52;14.73;;;5.40;;
20629;SDS011;17386;43.846;25.950;2022-09-09T15:06:19;9.57;;;5.75;;
20629;SDS011;17386;43.846;25.950;2022-09-09T15:08:46;13.75;;;5.65;;
20629;SDS011;17386;43.846;25.950;2022-09-09T15:11:13;17.13;;;6.70;;
20629;SDS011;17386;43.846;25.950;2022-09-09T15:13:40;10.57;;;5.90;;
20629;SDS011;17386;43.846;25.950;2022-09-09T15:16:09;10.02;;;5.75;;
20629;SDS011;17386;43.846;25.950;2022-09-09T15:18:36;11.93;;;5.70;;
20629;SDS011;17386;43.846;25.950;2022-09-09T15:21:08;14.65;;;6.47;;
20629;SDS011;17386;43.846;25.950;2022-09-09T15:23:35;20.35;;;8.25;;
20629;SDS011;17386;43.846;25.950;2022-09-09T15:26:01;13.40;;;7.13;;
20629;SDS011;17386;43.846;25.950;2022-09-09T15:28:27;20.73;;;8.02;;
20629;SDS011;17386;43.846;25.950;2022-09-09T15:30:53;20.02;;;7.65;;
20629;SDS011;17386;43.846;25.950;2022-09-09T15:33:20;14.40;;;7.35;;
20629;SDS011;17386;43.846;25.950;2022-09-09T15:35:46;22.30;;;8.05;;
20629;SDS011;17386;43.846;25.950;2022-09-09T15:38:12;16.67;;;7.55;;
20629;SDS011;17386;43.846;25.950;2022-09-09T15:40:38;18.52;;;8.77;;
20629;SDS011;17386;43.846;25.950;2022-09-09T15:43:05;22.73;;;11.65;;
20629;SDS011;17386;43.846;25.950;2022-09-09T15:45:32;16.48;;;9.00;;
20629;SDS011;17386;43.846;25.950;2022-09-09T15:47:59;12.95;;;7.28;;
20629;SDS011;17386;43.846;25.950;2022-09-09T15:50:25;15.52;;;7.05;;
20629;SDS011;17386;43.846;25.950;2022-09-09T15:52:51;26.52;;;7.90;;
20629;SDS011;17386;43.846;25.950;2022-09-09T15:55:17;11.38;;;7.03;;
20629;SDS011;17386;43.846;25.950;2022-09-09T15:57:44;10.75;;;7.00;;
20629;SDS011;17386;43.846;25.950;2022-09-09T16:00:09;17.45;;;7.25;;
20629;SDS011;17386;43.846;25.950;2022-09-09T16:02:38;13.43;;;6.75;;
20629;SDS011;17386;43.846;25.950;2022-09-09T16:05:04;11.80;;;6.82;;
20629;SDS011;17386;43.846;25.950;2022-09-09T16:07:29;13.38;;;6.70;;
20629;SDS011;17386;43.846;25.950;2022-09-09T16:09:55;16.35;;;7.28;;
20629;SDS011;17386;43.846;25.950;2022-09-09T16:12:20;11.68;;;6.22;;
20629;SDS011;17386;43.846;25.950;2022-09-09T16:14:46;19.98;;;15.27;;
20629;SDS011;17386;43.846;25.950;2022-09-09T16:17:11;9.73;;;5.65;;
20629;SDS011;17386;43.846;25.950;2022-09-09T16:19:37;12.45;;;5.57;;
20629;SDS011;17386;43.846;25.950;2022-09-09T16:22:03;16.15;;;5.35;;
20629;SDS011;17386;43.846;25.950;2022-09-09T16:24:29;9.98;;;4.97;;
20629;SDS011;17386;43.846;25.950;2022-09-09T16:26:55;10.55;;;5.90;;
20629;SDS011;17386;43.846;25.950;2022-09-09T16:29:21;8.68;;;5.35;;
20629;SDS011;17386;43.846;25.950;2022-09-09T16:31:47;7.93;;;5.18;;
20629;SDS011;17386;43.846;25.950;2022-09-09T16:34:14;9.27;;;5.13;;
20629;SDS011;17386;43.846;25.950;2022-09-09T16:36:41;12.90;;;5.72;;
20629;SDS011;17386;43.846;25.950;2022-09-09T16:39:12;12.23;;;5.88;;
20629;SDS011;17386;43.846;25.950;2022-09-09T16:41:39;13.13;;;6.18;;
20629;SDS011;17386;43.846;25.950;2022-09-09T16:44:07;14.43;;;6.03;;
20629;SDS011;17386;43.846;25.950;2022-09-09T16:46:35;8.80;;;5.05;;
20629;SDS011;17386;43.846;25.950;2022-09-09T16:49:04;10.27;;;5.57;;
20629;SDS011;17386;43.846;25.950;2022-09-09T16:51:35;11.75;;;5.55;;
20629;SDS011;17386;43.846;25.950;2022-09-09T16:54:03;11.27;;;5.20;;
20629;SDS011;17386;43.846;25.950;2022-09-09T16:56:37;15.93;;;6.07;;
20629;SDS011;17386;43.846;25.950;2022-09-09T16:59:08;14.45;;;6.10;;
20629;SDS011;17386;43.846;25.950;2022-09-09T17:01:36;13.07;;;5.85;;
20629;SDS011;17386;43.846;25.950;2022-09-09T17:04:06;13.75;;;6.38;;
20629;SDS011;17386;43.846;25.950;2022-09-09T17:06:33;9.43;;;5.32;;
20629;SDS011;17386;43.846;25.950;2022-09-09T17:09:00;10.93;;;5.93;;
20629;SDS011;17386;43.846;25.950;2022-09-09T17:11:27;12.43;;;6.43;;
20629;SDS011;17386;43.846;25.950;2022-09-09T17:13:54;15.50;;;7.95;;
20629;SDS011;17386;43.846;25.950;2022-09-09T17:16:21;14.30;;;6.75;;
20629;SDS011;17386;43.846;25.950;2022-09-09T17:18:48;12.88;;;6.68;;
20629;SDS011;17386;43.846;25.950;2022-09-09T17:21:16;15.60;;;6.03;;
20629;SDS011;17386;43.846;25.950;2022-09-09T17:23:43;11.38;;;6.93;;
20629;SDS011;17386;43.846;25.950;2022-09-09T17:26:11;10.90;;;6.00;;
20629;SDS011;17386;43.846;25.950;2022-09-09T17:28:43;13.90;;;6.05;;
20629;SDS011;17386;43.846;25.950;2022-09-09T17:31:15;10.55;;;6.38;;
20629;SDS011;17386;43.846;25.950;2022-09-09T17:33:43;37.20;;;21.08;;
20629;SDS011;17386;43.846;25.950;2022-09-09T17:36:15;26.95;;;14.43;;
20629;SDS011;17386;43.846;25.950;2022-09-09T17:38:46;21.02;;;12.23;;
20629;SDS011;17386;43.846;25.950;2022-09-09T17:41:18;16.73;;;7.70;;
20629;SDS011;17386;43.846;25.950;2022-09-09T17:43:46;16.17;;;8.05;;
20629;SDS011;17386;43.846;25.950;2022-09-09T17:46:19;14.93;;;6.90;;